createdAt,value
2023-05-13T00:01:17.782Z,39.95
2023-05-13T00:03:47.567Z,39.37
2023-05-13T00:06:15.567Z,39.10
2023-05-13T00:08:43.472Z,40.13
2023-05-13T00:11:11.242Z,40.30
2023-05-13T00:13:39.056Z,40.17
2023-05-13T00:16:07.042Z,40.27
2023-05-13T00:18:35.009Z,40.30
2023-05-13T00:21:03.009Z,40.49
2023-05-13T00:23:31.074Z,40.36
2023-05-13T00:25:59.647Z,40.37
2023-05-13T00:28:27.522Z,40.04
2023-05-13T00:30:55.431Z,40.33
2023-05-13T00:33:23.303Z,40.66
2023-05-13T00:35:51.079Z,40.49
2023-05-13T00:38:19.062Z,40.67
2023-05-13T00:40:47.508Z,40.58
2023-05-13T00:43:15.493Z,40.46
2023-05-13T00:45:43.988Z,40.58
2023-05-13T00:48:11.857Z,40.75
2023-05-13T00:50:42.303Z,40.98
2023-05-13T00:53:11.100Z,41.01
2023-05-13T00:55:46.028Z,40.91
2023-05-13T00:58:14.446Z,40.91
2023-05-13T01:00:56.979Z,41.60
2023-05-13T01:03:41.277Z,41.61
2023-05-13T01:06:15.483Z,41.13
2023-05-13T01:08:52.142Z,41.40
2023-05-13T01:11:24.610Z,41.44
2023-05-13T01:14:00.591Z,41.68
2023-05-13T01:16:31.971Z,41.53
2023-05-13T01:19:03.110Z,41.60
2023-05-13T01:21:36.356Z,41.63
2023-05-13T01:24:04.422Z,41.59
2023-05-13T01:26:32.287Z,41.77
2023-05-13T01:29:00.499Z,42.27
2023-05-13T01:31:29.686Z,41.96
2023-05-13T01:33:57.809Z,41.41
2023-05-13T01:36:26.072Z,41.58
2023-05-13T01:38:55.117Z,41.61
2023-05-13T01:41:23.015Z,41.40
2023-05-13T01:43:51.284Z,41.63
2023-05-13T01:46:19.110Z,41.56
2023-05-13T01:48:48.290Z,41.32
2023-05-13T01:51:16.306Z,41.80
2023-05-13T01:53:45.319Z,41.25
2023-05-13T01:56:13.063Z,40.77
2023-05-13T01:58:41.357Z,40.55
2023-05-13T02:01:09.124Z,39.52
2023-05-13T02:03:37.590Z,38.70
2023-05-13T02:06:06.019Z,38.62
2023-05-13T02:08:34.198Z,37.88
2023-05-13T02:11:02.082Z,37.54
2023-05-13T02:13:30.958Z,37.66
2023-05-13T02:15:58.850Z,37.05
2023-05-13T02:18:26.865Z,37.14
2023-05-13T02:21:14.612Z,37.00
2023-05-13T02:23:42.498Z,36.82
2023-05-13T02:26:10.304Z,36.27
2023-05-13T02:28:38.133Z,36.06
2023-05-13T02:31:07.041Z,35.28
2023-05-13T02:33:35.228Z,32.54
2023-05-13T02:36:03.604Z,31.65
2023-05-13T02:38:31.350Z,30.48
2023-05-13T02:41:00.635Z,29.03
2023-05-13T02:43:30.062Z,27.68
2023-05-13T02:46:04.326Z,26.66
2023-05-13T02:48:33.774Z,25.20
2023-05-13T02:51:02.851Z,25.05
2023-05-13T02:53:30.994Z,24.96
2023-05-13T02:56:03.563Z,24.60
2023-05-13T02:58:31.337Z,23.89
2023-05-13T03:01:00.124Z,24.14
2023-05-13T03:03:29.292Z,23.78
2023-05-13T03:05:57.316Z,23.38
2023-05-13T03:08:25.138Z,23.58
2023-05-13T03:10:52.861Z,22.71
2023-05-13T03:13:20.946Z,22.51
2023-05-13T03:15:48.878Z,22.48
2023-05-13T03:18:16.725Z,22.27
2023-05-13T03:20:44.516Z,21.99
2023-05-13T03:23:12.387Z,21.56
2023-05-13T03:25:40.209Z,21.40
2023-05-13T03:28:08.984Z,20.61
2023-05-13T03:30:40.363Z,20.12
2023-05-13T03:33:13.738Z,20.75
2023-05-13T03:35:41.909Z,19.96
2023-05-13T03:38:09.689Z,19.76
2023-05-13T03:40:42.274Z,19.80
2023-05-13T03:43:10.126Z,20.12
2023-05-13T03:45:40.498Z,20.30
2023-05-13T03:48:12.251Z,19.64
2023-05-13T03:50:40.714Z,19.55
2023-05-13T03:53:10.264Z,20.36
2023-05-13T03:55:38.491Z,19.55
2023-05-13T03:58:14.537Z,19.27
2023-05-13T04:00:43.140Z,19.03
2023-05-13T04:03:11.073Z,19.24
2023-05-13T04:05:38.840Z,19.54
2023-05-13T04:08:06.615Z,20.01
2023-05-13T04:10:34.425Z,19.67
2023-05-13T04:13:02.276Z,19.48
2023-05-13T04:15:31.832Z,19.74
2023-05-13T04:17:59.822Z,19.97
2023-05-13T04:20:29.371Z,19.76
2023-05-13T04:22:57.258Z,18.87
2023-05-13T04:25:25.104Z,18.94
2023-05-13T04:27:54.176Z,19.05
2023-05-13T04:30:43.407Z,19.39
2023-05-13T04:33:11.896Z,19.07
2023-05-13T04:35:43.082Z,18.86
2023-05-13T04:38:11.059Z,18.96
2023-05-13T04:40:39.667Z,18.25
2023-05-13T04:43:14.442Z,19.00
2023-05-13T04:45:49.793Z,19.28
2023-05-13T04:48:17.849Z,19.06
2023-05-13T04:50:47.070Z,19.59
2023-05-13T04:53:16.538Z,19.66
2023-05-13T04:55:50.221Z,19.13
2023-05-13T04:58:18.030Z,19.10
2023-05-13T05:00:46.398Z,19.33
2023-05-13T05:03:14.605Z,19.27
2023-05-13T05:05:42.697Z,18.99
2023-05-13T05:08:12.086Z,19.56
2023-05-13T05:10:40.052Z,19.17
2023-05-13T05:13:10.829Z,19.28
2023-05-13T05:15:39.280Z,19.07
2023-05-13T05:18:08.689Z,18.98
2023-05-13T05:20:38.650Z,19.24
2023-05-13T05:23:10.749Z,19.57
2023-05-13T05:25:39.434Z,19.44
2023-05-13T05:28:09.476Z,19.36
2023-05-13T05:30:41.204Z,18.90
2023-05-13T05:33:22.852Z,19.39
2023-05-13T05:35:51.714Z,19.28
2023-05-13T05:38:21.624Z,19.09
2023-05-13T05:40:49.477Z,17.80
2023-05-13T05:43:17.437Z,19.22
2023-05-13T05:45:45.748Z,19.04
2023-05-13T05:48:17.781Z,18.71
2023-05-13T05:50:45.884Z,19.58
2023-05-13T05:53:17.363Z,18.78
2023-05-13T05:55:46.372Z,19.08
2023-05-13T05:58:16.668Z,19.46
2023-05-13T06:00:45.031Z,18.29
2023-05-13T06:03:13.130Z,18.33
2023-05-13T06:05:41.153Z,19.16
2023-05-13T06:08:09.008Z,19.21
2023-05-13T06:10:36.810Z,18.52
2023-05-13T06:13:04.901Z,19.16
2023-05-13T06:15:32.855Z,19.68
2023-05-13T06:18:01.893Z,18.56
2023-05-13T06:20:29.771Z,18.36
2023-05-13T06:22:57.810Z,19.45
2023-05-13T06:25:26.447Z,19.03
2023-05-13T06:27:54.222Z,19.30
2023-05-13T06:30:23.676Z,19.17
2023-05-13T06:33:00.946Z,18.53
2023-05-13T06:35:31.282Z,18.74
2023-05-13T06:38:00.590Z,19.25
2023-05-13T06:40:38.141Z,18.80
2023-05-13T06:43:07.279Z,19.21
2023-05-13T06:45:39.226Z,19.23
2023-05-13T06:48:07.148Z,19.71
2023-05-13T06:50:35.219Z,19.71
2023-05-13T06:53:03.251Z,18.94
2023-05-13T06:55:31.209Z,19.75
2023-05-13T06:57:58.968Z,19.11
2023-05-13T07:00:26.740Z,20.26
2023-05-13T07:02:54.866Z,19.83
2023-05-13T07:05:22.900Z,20.20
2023-05-13T07:07:53.833Z,20.40
2023-05-13T07:10:22.046Z,20.94
2023-05-13T07:12:50.154Z,20.45
2023-05-13T07:15:18.019Z,21.31
2023-05-13T07:17:45.906Z,21.25
2023-05-13T07:20:13.960Z,21.10
2023-05-13T07:22:41.836Z,20.62
2023-05-13T07:25:11.011Z,21.34
2023-05-13T07:27:38.771Z,21.14
2023-05-13T07:30:07.416Z,22.05
2023-05-13T07:32:37.215Z,21.52
2023-05-13T07:35:05.699Z,21.74
2023-05-13T07:37:33.579Z,21.33
2023-05-13T07:40:01.390Z,22.80
2023-05-13T07:42:32.578Z,22.34
2023-05-13T07:45:00.581Z,22.61
2023-05-13T07:47:29.384Z,22.39
2023-05-13T07:49:58.402Z,22.45
2023-05-13T07:52:44.905Z,22.83
2023-05-13T07:55:12.655Z,21.53
2023-05-13T07:57:40.370Z,22.42
2023-05-13T08:00:08.824Z,21.94
2023-05-13T08:02:44.111Z,22.25
2023-05-13T08:05:12.544Z,22.78
2023-05-13T08:07:40.351Z,22.50
2023-05-13T08:10:08.552Z,22.77
2023-05-13T08:12:36.347Z,22.18
2023-05-13T08:15:04.880Z,22.73
2023-05-13T08:17:35.991Z,23.69
2023-05-13T08:20:04.162Z,23.16
2023-05-13T08:22:33.348Z,23.61
2023-05-13T08:25:01.382Z,23.62
2023-05-13T08:27:34.319Z,23.01
2023-05-13T08:30:02.061Z,23.67
2023-05-13T08:32:33.633Z,23.32
2023-05-13T08:35:01.510Z,23.83
2023-05-13T08:37:31.364Z,24.49
2023-05-13T08:40:01.736Z,23.54
2023-05-13T08:42:33.451Z,23.74
2023-05-13T08:45:05.841Z,24.25
2023-05-13T08:47:44.213Z,24.21
2023-05-13T08:50:13.046Z,24.54
2023-05-13T08:52:40.982Z,23.16
2023-05-13T08:55:09.180Z,23.47
2023-05-13T08:57:37.114Z,23.39
2023-05-13T09:00:05.494Z,23.34
2023-05-13T09:02:35.254Z,23.48
2023-05-13T09:05:06.912Z,23.49
2023-05-13T09:07:36.004Z,24.18
2023-05-13T09:10:04.638Z,23.86
2023-05-13T09:12:56.433Z,23.30
2023-05-13T09:15:27.144Z,23.66
2023-05-13T09:18:05.636Z,23.08
2023-05-13T09:20:34.527Z,22.42
2023-05-13T09:23:11.485Z,22.51
2023-05-13T09:25:39.948Z,22.18
2023-05-13T09:28:08.701Z,22.38
2023-05-13T09:30:43.288Z,22.69
2023-05-13T09:33:19.966Z,23.92
2023-05-13T09:35:54.406Z,23.36
2023-05-13T09:38:26.049Z,23.20
2023-05-13T09:40:55.600Z,23.20
2023-05-13T09:43:33.540Z,23.45
2023-05-13T09:46:03.573Z,23.26
2023-05-13T09:48:35.344Z,23.27
2023-05-13T09:51:03.605Z,23.36
2023-05-13T09:53:31.751Z,23.50
2023-05-13T09:56:00.439Z,23.58
2023-05-13T09:58:30.947Z,23.46
2023-05-13T10:00:59.915Z,23.46
2023-05-13T10:03:29.134Z,23.70
2023-05-13T10:06:01.302Z,23.75
2023-05-13T10:08:31.362Z,24.12
2023-05-13T10:10:59.869Z,24.45
2023-05-13T10:13:29.148Z,24.79
2023-05-13T10:15:57.546Z,24.30
2023-05-13T10:18:25.766Z,23.45
2023-05-13T10:20:55.096Z,24.26
2023-05-13T10:23:24.603Z,23.59
2023-05-13T10:25:59.159Z,23.51
2023-05-13T10:28:28.600Z,22.39
2023-05-13T10:30:57.414Z,22.28
2023-05-13T10:33:25.523Z,22.69
2023-05-13T10:36:31.832Z,23.18
2023-05-13T10:39:22.201Z,22.33
2023-05-13T10:42:12.224Z,22.54
2023-05-13T10:44:42.456Z,22.78
2023-05-13T10:47:11.412Z,23.30
2023-05-13T10:49:39.817Z,23.05
2023-05-13T10:52:10.423Z,23.07
2023-05-13T10:54:42.048Z,23.27
2023-05-13T10:57:10.068Z,23.48
2023-05-13T10:59:40.185Z,23.50
2023-05-13T11:02:24.418Z,23.69
2023-05-13T11:05:00.561Z,24.44
2023-05-13T11:07:31.571Z,23.79
2023-05-13T11:10:00.068Z,23.68
2023-05-13T11:12:27.901Z,24.31
2023-05-13T11:14:58.773Z,24.91
2023-05-13T11:17:26.817Z,24.99
2023-05-13T11:19:54.706Z,24.61
2023-05-13T11:22:24.360Z,24.02
2023-05-13T11:25:07.069Z,23.93
2023-05-13T11:27:43.461Z,23.64
2023-05-13T11:30:26.611Z,23.46
2023-05-13T11:32:58.705Z,23.61
2023-05-13T11:35:31.768Z,24.19
2023-05-13T11:38:01.905Z,23.67
2023-05-13T11:40:31.134Z,24.25
2023-05-13T11:42:59.610Z,23.98
2023-05-13T11:45:28.731Z,24.22
2023-05-13T11:47:57.445Z,23.93
2023-05-13T11:50:32.511Z,23.69
2023-05-13T11:53:03.843Z,24.39
2023-05-13T11:55:39.833Z,25.17
2023-05-13T11:58:16.889Z,24.09
2023-05-13T12:00:47.856Z,23.80
2023-05-13T12:03:16.615Z,22.02
2023-05-13T12:05:45.162Z,22.96
2023-05-13T12:08:13.648Z,23.31
2023-05-13T12:10:45.235Z,23.50
2023-05-13T12:13:13.248Z,23.41
2023-05-13T12:15:41.818Z,23.87
2023-05-13T12:18:09.733Z,23.91
2023-05-13T12:20:38.449Z,24.12
2023-05-13T12:23:06.654Z,23.58
2023-05-13T12:25:51.488Z,23.74
2023-05-13T12:28:24.659Z,23.87
2023-05-13T12:30:59.519Z,23.84
2023-05-13T12:33:29.403Z,24.01
2023-05-13T12:36:28.360Z,24.17
2023-05-13T12:39:02.895Z,24.01
2023-05-13T12:41:36.183Z,23.47
2023-05-13T12:44:07.881Z,22.99
2023-05-13T12:46:36.417Z,23.46
2023-05-13T12:49:05.454Z,23.49
2023-05-13T12:51:34.182Z,23.37
2023-05-13T12:54:02.381Z,24.04
2023-05-13T12:56:30.156Z,24.06
2023-05-13T12:58:58.096Z,23.99
2023-05-13T13:01:25.994Z,23.56
2023-05-13T13:03:53.892Z,23.99
2023-05-13T13:06:21.925Z,23.72
2023-05-13T13:08:50.045Z,23.57
2023-05-13T13:11:21.717Z,23.28
2023-05-13T13:13:50.170Z,22.86
2023-05-13T13:16:18.001Z,23.11
2023-05-13T13:18:46.215Z,22.77
2023-05-13T13:21:14.200Z,22.71
2023-05-13T13:23:42.363Z,22.88
2023-05-13T13:26:11.420Z,22.89
2023-05-13T13:28:39.134Z,23.19
2023-05-13T13:31:07.989Z,23.13
2023-05-13T13:33:35.945Z,23.03
2023-05-13T13:36:03.975Z,23.47
2023-05-13T13:38:31.795Z,23.27
2023-05-13T13:40:59.500Z,23.50
2023-05-13T13:43:27.949Z,23.26
2023-05-13T13:45:55.830Z,23.45
2023-05-13T13:48:23.700Z,23.77
2023-05-13T13:50:53.022Z,23.76
2023-05-13T13:53:21.006Z,24.17
2023-05-13T13:55:48.734Z,24.00
2023-05-13T13:58:16.531Z,24.34
2023-05-13T14:00:44.972Z,24.52
2023-05-13T14:03:13.560Z,24.54
2023-05-13T14:05:41.375Z,24.70
2023-05-13T14:08:09.360Z,24.50
2023-05-13T14:10:38.279Z,24.80
2023-05-13T14:13:06.751Z,24.91
2023-05-13T14:15:39.095Z,24.76
2023-05-13T14:18:10.057Z,25.18
2023-05-13T14:20:38.942Z,25.02
2023-05-13T14:23:06.763Z,24.99
2023-05-13T14:25:34.613Z,25.19
2023-05-13T14:28:02.532Z,25.47
2023-05-13T14:30:30.556Z,25.45
2023-05-13T14:33:00.744Z,25.60
2023-05-13T14:35:28.832Z,25.69
2023-05-13T14:37:57.124Z,25.55
2023-05-13T14:40:25.032Z,25.79
2023-05-13T14:42:52.843Z,25.87
2023-05-13T14:45:20.818Z,25.34
2023-05-13T14:47:48.688Z,25.97
2023-05-13T14:50:16.501Z,26.06
2023-05-13T14:52:44.278Z,26.73
2023-05-13T14:55:12.091Z,26.37
2023-05-13T14:57:39.950Z,26.79
2023-05-13T15:00:08.726Z,26.65
2023-05-13T15:02:36.563Z,26.61
2023-05-13T15:05:04.841Z,26.83
2023-05-13T15:07:32.907Z,26.99
2023-05-13T15:10:00.631Z,27.43
2023-05-13T15:12:28.359Z,27.44
2023-05-13T15:14:56.254Z,27.44
2023-05-13T15:17:24.156Z,27.09
2023-05-13T15:19:52.033Z,27.02
2023-05-13T15:22:19.789Z,26.83
2023-05-13T15:24:47.558Z,26.34
2023-05-13T15:27:15.737Z,26.28
2023-05-13T15:29:43.435Z,26.51
2023-05-13T15:32:12.044Z,26.63
2023-05-13T15:34:39.775Z,26.73
2023-05-13T15:37:07.602Z,26.82
2023-05-13T15:39:35.345Z,26.49
2023-05-13T15:42:03.844Z,26.92
2023-05-13T15:44:31.576Z,27.02
2023-05-13T15:46:59.407Z,26.95
2023-05-13T15:49:27.478Z,27.28
2023-05-13T15:51:56.250Z,27.11
2023-05-13T15:54:24.142Z,27.19
2023-05-13T15:56:53.045Z,26.91
2023-05-13T15:59:20.739Z,26.96
2023-05-13T16:01:48.765Z,27.23
2023-05-13T16:04:16.946Z,27.15
2023-05-13T16:06:44.735Z,27.32
2023-05-13T16:09:12.932Z,26.76
2023-05-13T16:11:40.658Z,26.80
2023-05-13T16:14:08.818Z,27.03
2023-05-13T16:16:36.720Z,27.19
2023-05-13T16:19:04.688Z,27.11
2023-05-13T16:21:32.546Z,26.98
2023-05-13T16:24:00.374Z,27.03
2023-05-13T16:26:28.171Z,27.62
2023-05-13T16:28:55.868Z,27.34
2023-05-13T16:31:23.752Z,27.05
2023-05-13T16:33:52.002Z,27.17
2023-05-13T16:36:19.749Z,27.32
2023-05-13T16:38:47.507Z,27.05
2023-05-13T16:41:15.288Z,27.39
2023-05-13T16:43:43.026Z,27.37
2023-05-13T16:46:10.828Z,27.52
2023-05-13T16:48:38.674Z,27.43
2023-05-13T16:51:06.457Z,27.51
2023-05-13T16:53:34.392Z,27.74
2023-05-13T16:56:02.350Z,28.90
2023-05-13T16:58:30.215Z,29.38
2023-05-13T17:00:59.313Z,29.97
2023-05-13T17:03:27.991Z,30.17
2023-05-13T17:05:55.914Z,30.44
2023-05-13T17:08:24.623Z,31.05
2023-05-13T17:10:52.542Z,30.93
2023-05-13T17:13:20.660Z,31.33
2023-05-13T17:15:48.480Z,31.50
2023-05-13T17:18:16.268Z,31.33
2023-05-13T17:20:45.550Z,31.46
2023-05-13T17:23:13.246Z,31.49
2023-05-13T17:25:41.151Z,31.87
2023-05-13T17:28:08.967Z,32.04
2023-05-13T17:30:36.738Z,31.93
2023-05-13T17:33:04.491Z,31.85
2023-05-13T17:35:32.249Z,31.95
2023-05-13T17:37:59.971Z,32.01
2023-05-13T17:40:27.746Z,32.28
2023-05-13T17:42:56.170Z,32.45
2023-05-13T17:45:24.314Z,32.95
2023-05-13T17:47:52.146Z,32.82
2023-05-13T17:50:20.281Z,33.20
2023-05-13T17:52:48.158Z,33.20
2023-05-13T17:55:16.133Z,33.20
2023-05-13T17:57:43.899Z,33.17
2023-05-13T18:00:12.435Z,33.09
2023-05-13T18:02:40.565Z,33.66
2023-05-13T18:05:12.996Z,33.53
2023-05-13T18:07:40.931Z,33.82
2023-05-13T18:10:09.228Z,34.04
2023-05-13T18:12:37.305Z,34.52
2023-05-13T18:15:06.023Z,34.38
2023-05-13T18:17:35.172Z,35.12
2023-05-13T18:20:03.096Z,35.20
2023-05-13T18:22:32.276Z,35.20
2023-05-13T18:25:00.020Z,35.39
2023-05-13T18:27:27.814Z,34.93
2023-05-13T18:29:55.616Z,35.15
2023-05-13T18:32:23.507Z,35.17
2023-05-13T18:34:51.248Z,35.11
2023-05-13T18:37:19.290Z,35.00
2023-05-13T18:39:47.133Z,35.22
2023-05-13T18:42:14.942Z,35.60
2023-05-13T18:44:42.736Z,35.74
2023-05-13T18:47:11.390Z,35.75
2023-05-13T18:49:39.209Z,35.87
2023-05-13T18:52:07.358Z,35.78
2023-05-13T18:54:36.303Z,36.01
2023-05-13T18:57:04.456Z,35.84
2023-05-13T18:59:32.236Z,35.97
2023-05-13T19:02:00.399Z,36.38
2023-05-13T19:04:28.384Z,36.43
2023-05-13T19:06:56.194Z,36.39
2023-05-13T19:09:24.067Z,36.56
2023-05-13T19:11:51.904Z,36.44
2023-05-13T19:14:19.713Z,36.57
2023-05-13T19:16:47.549Z,36.68
2023-05-13T19:19:15.477Z,36.83
2023-05-13T19:21:43.342Z,36.89
2023-05-13T19:24:11.203Z,36.97
2023-05-13T19:26:39.009Z,37.21
2023-05-13T19:29:06.782Z,37.31
2023-05-13T19:31:34.740Z,37.37
2023-05-13T19:34:02.836Z,37.55
2023-05-13T19:36:31.228Z,37.79
2023-05-13T19:38:59.077Z,37.67
2023-05-13T19:41:27.059Z,37.79
2023-05-13T19:43:54.843Z,38.05
2023-05-13T19:46:22.741Z,38.10
2023-05-13T19:48:50.561Z,38.42
2023-05-13T19:51:18.348Z,38.38
2023-05-13T19:53:46.194Z,38.52
2023-05-13T19:56:13.958Z,38.43
2023-05-13T19:58:42.312Z,38.77
2023-05-13T20:01:11.974Z,39.17
2023-05-13T20:03:39.857Z,38.98
2023-05-13T20:06:08.289Z,39.42
2023-05-13T20:08:36.196Z,39.36
2023-05-13T20:11:03.959Z,39.09
2023-05-13T20:13:32.673Z,39.09
2023-05-13T20:16:00.411Z,38.72
2023-05-13T20:18:28.180Z,38.90
2023-05-13T20:20:55.998Z,38.96
2023-05-13T20:23:23.807Z,39.01
2023-05-13T20:25:53.099Z,39.32
2023-05-13T20:28:21.422Z,39.25
2023-05-13T20:30:53.083Z,38.88
2023-05-13T20:33:20.903Z,39.14
2023-05-13T20:35:49.169Z,39.49
2023-05-13T20:38:17.119Z,39.72
2023-05-13T20:40:44.806Z,39.56
2023-05-13T20:43:12.809Z,40.13
2023-05-13T20:45:40.650Z,39.76
2023-05-13T20:48:09.457Z,39.78
2023-05-13T20:50:37.594Z,40.01
2023-05-13T20:53:05.656Z,40.05
2023-05-13T20:55:33.478Z,40.44
2023-05-13T20:58:01.264Z,39.59
2023-05-13T21:00:29.160Z,39.52
2023-05-13T21:02:57.247Z,39.28
2023-05-13T21:05:25.271Z,39.82
2023-05-13T21:07:53.291Z,39.68
2023-05-13T21:10:21.608Z,39.39
2023-05-13T21:12:49.722Z,39.30
2023-05-13T21:15:17.502Z,39.17
2023-05-13T21:17:46.545Z,38.95
2023-05-13T21:20:14.613Z,39.49
2023-05-13T21:22:42.522Z,39.43
2023-05-13T21:25:10.676Z,39.35
2023-05-13T21:27:38.695Z,39.70
2023-05-13T21:30:07.104Z,40.01
2023-05-13T21:32:34.979Z,39.73
2023-05-13T21:35:02.817Z,40.29
2023-05-13T21:37:32.665Z,40.73
2023-05-13T21:40:00.467Z,40.60
2023-05-13T21:42:28.376Z,41.19
2023-05-13T21:44:57.435Z,40.99
2023-05-13T21:47:25.267Z,41.17
2023-05-13T21:49:53.176Z,41.57
2023-05-13T21:52:20.989Z,41.86
2023-05-13T21:54:48.838Z,42.25
2023-05-13T21:57:16.989Z,42.56
2023-05-13T21:59:44.950Z,42.79
2023-05-13T22:02:12.854Z,42.76
2023-05-13T22:04:40.664Z,43.15
2023-05-13T22:07:08.631Z,42.93
2023-05-13T22:09:36.475Z,43.09
2023-05-13T22:12:04.896Z,43.37
2023-05-13T22:14:38.391Z,43.06
2023-05-13T22:17:09.777Z,43.18
2023-05-13T22:19:44.142Z,43.36
2023-05-13T22:22:12.078Z,43.78
2023-05-13T22:24:40.327Z,43.68
2023-05-13T22:27:09.210Z,43.78
2023-05-13T22:29:36.994Z,44.30
2023-05-13T22:32:05.153Z,43.75
2023-05-13T22:34:33.457Z,43.80
2023-05-13T22:37:01.715Z,44.15
2023-05-13T22:39:30.247Z,44.28
2023-05-13T22:41:59.096Z,44.50
2023-05-13T22:44:29.216Z,44.70
2023-05-13T22:46:57.193Z,44.87
2023-05-13T22:49:25.035Z,45.28
2023-05-13T22:51:52.828Z,44.98
2023-05-13T22:54:20.582Z,45.14
2023-05-13T22:56:48.291Z,45.18
2023-05-13T22:59:16.204Z,45.36
2023-05-13T23:01:44.058Z,45.07
2023-05-13T23:04:11.932Z,45.86
2023-05-13T23:06:40.101Z,46.06
2023-05-13T23:09:07.981Z,46.23
2023-05-13T23:11:36.652Z,46.61
2023-05-13T23:14:04.543Z,46.82
2023-05-13T23:16:32.458Z,46.33
2023-05-13T23:19:00.445Z,46.53
2023-05-13T23:21:28.435Z,47.24
2023-05-13T23:23:56.238Z,47.26
2023-05-13T23:26:24.993Z,47.35
2023-05-13T23:28:52.839Z,47.49
2023-05-13T23:31:20.751Z,47.91
2023-05-13T23:33:48.874Z,47.67
2023-05-13T23:36:16.613Z,48.23
2023-05-13T23:38:44.453Z,48.32
2023-05-13T23:41:12.284Z,48.56
2023-05-13T23:43:40.163Z,48.08
2023-05-13T23:46:08.134Z,48.54
2023-05-13T23:48:35.985Z,48.72
2023-05-13T23:51:04.119Z,49.08
2023-05-13T23:53:32.102Z,48.65
2023-05-13T23:56:00.024Z,49.42
2023-05-13T23:58:27.897Z,49.80
